Edgerton, WY (82635)

11:58 PM MST on December 27, 2014 (GMT -0700)
APRSWXNET Midwest WY US | Change Station
CLOSE
Current Station
Personal Weather Station
Location: Midwest, WY
Elevation: 4865 ft
Nearby Weather Stations
Active Advisory: Special Statement

Elev 4865 ft 43.41 °N, 106.28 °W | Updated 31 minutes ago

Clear
Clear
15 °F
Feels Like 6 °F
N
6
Wind Variable Wind from South
Gusts 11.0 mph

Today
High -- | Low -- °F
--% Chance of Precip.
Yesterday
High -- | Low -- °F
Precip. -- in
7:36 AM 4:35 PM
Waxing Crescent, 44% visible
Pressure 30.13 in
Visibility 10.0 miles
Clouds Clear
Windchill 6 °F
Dew Point 6 °F
Humidity 68%
Rainfall 0.00 in
Snow Depth Not available.
UV 0 out of 12
Pollen .10 out of 12
Air Quality Not available.
Flu Activity Not available.
METAR KCPR 280653Z AUTO 22019G25KT 10SM CLR M08/M14 A2995 RMK AO2 PK WND 22029/0616 SLP201 T10831139 410611156

More Conditions Fewer Conditions

Pressure 30.13 in
Visibility 10.0 miles
Clouds Clear
Windchill 6 °F
Dew Point 6 °F
Humidity 68%
Rainfall 0.00 in
Snow Depth Not available.
UV 0 out of 12
Pollen .10 out of 12
Air Quality Not available.
Flu Activity Not available.
METAR KCPR 280653Z AUTO 22019G25KT 10SM CLR M08/M14 A2995 RMK AO2 PK WND 22029/0616 SLP201 T10831139 410611156

More Conditions Fewer Conditions

10-Day Weather Forecast

Almanac

Astronomy

Dec. 27, 2014 Rise Set
Actual Time
Civil Twilight
Nautical Twilight
Astronomical Twilight
Moon
Length of Visible Light
Length of Day
Tomorrow will be .
, % of the Moon is Illuminated

Today's Extremes

State Highs State Lows

Community

WunderPhotos

Upload Photos

1,781,208 photos uploaded!

WunderBlogs® & News

Nearby

Air Quality

  Air Quality AQ Index Pollutant
Not available.

Snow Depth

Station Depth Elevation

Earthquake Activity

City Distance Mag. Time & Date
Minimum magnitude displayed is 2.5.

Coastal Water Temperatures

Place Temperature

Nearby Weather Stations